createdAt,value
2023-05-22T00:01:57.350Z,17.32
2023-05-22T00:04:24.398Z,17.31
2023-05-22T00:06:51.633Z,17.30
2023-05-22T00:09:18.699Z,17.29
2023-05-22T00:11:45.855Z,17.26
2023-05-22T00:14:13.877Z,17.22
2023-05-22T00:16:41.450Z,17.19
2023-05-22T00:19:17.374Z,17.15
2023-05-22T00:21:44.579Z,17.11
2023-05-22T00:24:11.726Z,17.07
2023-05-22T00:26:38.818Z,17.02
2023-05-22T00:29:06.125Z,16.97
2023-05-22T00:31:33.495Z,16.92
2023-05-22T00:34:00.902Z,16.88
2023-05-22T00:36:28.065Z,16.82
2023-05-22T00:38:55.255Z,16.78
2023-05-22T00:41:22.418Z,16.75
2023-05-22T00:43:51.229Z,16.69
2023-05-22T00:46:23.129Z,16.64
2023-05-22T00:48:50.318Z,16.60
2023-05-22T00:51:17.327Z,16.56
2023-05-22T00:53:44.673Z,16.55
2023-05-22T00:56:12.646Z,16.53
2023-05-22T00:58:39.663Z,16.51
2023-05-22T01:01:09.851Z,16.47
2023-05-22T01:03:45.089Z,16.46
2023-05-22T01:06:16.172Z,16.44
2023-05-22T01:08:43.839Z,16.42
2023-05-22T01:11:16.042Z,16.36
2023-05-22T01:13:57.150Z,16.29
2023-05-22T01:16:31.430Z,16.15
2023-05-22T01:19:36.089Z,15.97
2023-05-22T01:22:06.132Z,15.79
2023-05-22T01:24:38.267Z,15.70
2023-05-22T01:27:18.364Z,15.64
2023-05-22T01:30:09.357Z,15.57
2023-05-22T01:32:36.605Z,15.55
2023-05-22T01:35:08.269Z,15.51
2023-05-22T01:37:35.473Z,15.47
2023-05-22T01:40:02.487Z,15.44
2023-05-22T01:42:29.618Z,15.41
2023-05-22T01:44:57.672Z,15.37
2023-05-22T01:47:24.869Z,15.35
2023-05-22T01:49:52.292Z,15.34
2023-05-22T01:52:30.010Z,15.32
2023-05-22T01:55:35.325Z,15.29
2023-05-22T01:58:08.521Z,15.26
2023-05-22T02:00:35.688Z,15.24
2023-05-22T02:03:08.119Z,15.23
2023-05-22T02:05:38.211Z,15.21
2023-05-22T02:08:05.682Z,15.17
2023-05-22T02:10:32.716Z,15.11
2023-05-22T02:13:01.090Z,15.10
2023-05-22T02:15:28.749Z,15.09
2023-05-22T02:17:57.082Z,15.07
2023-05-22T02:20:24.189Z,15.06
2023-05-22T02:22:51.221Z,15.04
2023-05-22T02:25:18.392Z,14.99
2023-05-22T02:27:47.567Z,14.95
2023-05-22T02:30:14.841Z,14.92
2023-05-22T02:32:42.227Z,14.90
2023-05-22T02:35:09.781Z,14.89
2023-05-22T02:37:37.150Z,14.88
2023-05-22T02:40:07.588Z,14.85
2023-05-22T02:42:34.801Z,14.85
2023-05-22T02:45:02.595Z,14.88
2023-05-22T02:47:30.148Z,14.88
2023-05-22T02:49:58.210Z,14.91
2023-05-22T02:52:25.477Z,14.93
2023-05-22T02:54:52.522Z,14.97
2023-05-22T02:57:19.951Z,15.02
2023-05-22T02:59:47.050Z,15.05
2023-05-22T03:02:15.582Z,15.07
2023-05-22T03:04:42.681Z,15.11
2023-05-22T03:07:10.219Z,15.14
2023-05-22T03:09:37.437Z,15.19
2023-05-22T03:12:05.400Z,15.22
2023-05-22T03:14:32.562Z,15.26
2023-05-22T03:16:59.867Z,15.34
2023-05-22T03:19:27.340Z,15.40
2023-05-22T03:21:54.604Z,15.48
2023-05-22T03:24:22.178Z,15.55
2023-05-22T03:26:49.342Z,15.63
2023-05-22T03:29:21.814Z,15.70
2023-05-22T03:31:49.052Z,15.76
2023-05-22T03:34:16.972Z,15.77
2023-05-22T03:36:46.343Z,15.83
2023-05-22T03:39:15.365Z,15.91
2023-05-22T03:41:50.254Z,16.02
2023-05-22T03:44:17.681Z,16.12
2023-05-22T03:46:45.863Z,16.24
2023-05-22T03:49:14.021Z,16.33
2023-05-22T03:51:42.261Z,16.46
2023-05-22T03:54:09.526Z,16.62
2023-05-22T03:56:36.557Z,16.78
2023-05-22T03:59:03.599Z,16.91
2023-05-22T04:01:31.508Z,17.04
2023-05-22T04:03:58.729Z,17.16
2023-05-22T04:06:25.873Z,17.25
2023-05-22T04:08:52.945Z,17.31
2023-05-22T04:11:21.160Z,17.36
2023-05-22T04:13:49.696Z,17.41
2023-05-22T04:16:17.810Z,17.45
2023-05-22T04:18:44.992Z,17.48
2023-05-22T04:21:12.931Z,17.50
2023-05-22T04:23:43.445Z,17.53
2023-05-22T04:26:10.563Z,17.56
2023-05-22T04:28:38.190Z,17.55
2023-05-22T04:31:06.856Z,17.54
2023-05-22T04:33:34.883Z,17.51
2023-05-22T04:36:02.957Z,17.52
2023-05-22T04:38:30.387Z,17.55
2023-05-22T04:40:58.440Z,17.60
2023-05-22T04:43:26.988Z,17.66
2023-05-22T04:45:55.094Z,17.74
2023-05-22T04:48:23.215Z,17.78
2023-05-22T04:50:50.465Z,17.84
2023-05-22T04:53:17.873Z,17.95
2023-05-22T04:55:46.161Z,18.01
2023-05-22T04:58:13.236Z,18.05
2023-05-22T05:00:40.673Z,18.10
2023-05-22T05:03:08.516Z,18.16
2023-05-22T05:05:35.875Z,18.28
2023-05-22T05:08:06.097Z,18.36
2023-05-22T05:10:33.116Z,18.40
2023-05-22T05:13:00.202Z,18.39
2023-05-22T05:15:28.356Z,18.35
2023-05-22T05:17:56.210Z,18.23
2023-05-22T05:20:23.664Z,18.13
2023-05-22T05:22:51.278Z,18.12
2023-05-22T05:25:18.391Z,18.15
2023-05-22T05:27:45.880Z,18.17
2023-05-22T05:30:13.589Z,18.16
2023-05-22T05:32:58.491Z,18.15
2023-05-22T05:35:43.397Z,18.18
2023-05-22T05:38:12.768Z,18.14
2023-05-22T05:40:42.260Z,18.16
2023-05-22T05:43:10.251Z,18.20
2023-05-22T05:45:37.850Z,18.23
2023-05-22T05:48:05.384Z,18.23
2023-05-22T05:50:33.297Z,18.28
2023-05-22T05:53:00.419Z,18.36
2023-05-22T05:55:27.629Z,18.47
2023-05-22T05:57:55.479Z,18.52
2023-05-22T06:00:30.334Z,18.52
2023-05-22T06:02:59.658Z,18.54
2023-05-22T06:05:47.315Z,18.56
2023-05-22T06:08:22.507Z,18.60
2023-05-22T06:10:49.916Z,18.59
2023-05-22T06:13:31.262Z,18.58
2023-05-22T06:16:01.324Z,18.58
2023-05-22T06:18:29.974Z,18.65
2023-05-22T06:20:59.214Z,18.78
2023-05-22T06:23:26.550Z,18.93
2023-05-22T06:25:54.230Z,19.07
2023-05-22T06:28:21.622Z,19.16
2023-05-22T06:30:49.728Z,19.17
2023-05-22T06:33:17.957Z,19.17
2023-05-22T06:35:45.867Z,19.19
2023-05-22T06:38:13.099Z,19.21
2023-05-22T06:40:41.170Z,19.20
2023-05-22T06:43:16.694Z,19.20
2023-05-22T06:45:51.438Z,19.26
2023-05-22T06:48:34.103Z,19.35
2023-05-22T06:51:11.140Z,19.34
2023-05-22T06:53:38.504Z,19.34
2023-05-22T06:56:08.322Z,19.39
2023-05-22T06:58:52.296Z,19.43
2023-05-22T07:01:19.857Z,19.44
2023-05-22T07:03:58.469Z,19.50
2023-05-22T07:06:51.315Z,19.63
2023-05-22T07:09:20.072Z,19.77
2023-05-22T07:11:48.290Z,19.90
2023-05-22T07:14:16.249Z,19.98
2023-05-22T07:16:43.589Z,20.06
2023-05-22T07:19:12.179Z,20.07
2023-05-22T07:21:39.562Z,20.12
2023-05-22T07:24:10.080Z,20.23
2023-05-22T07:26:41.295Z,20.35
2023-05-22T07:29:09.362Z,20.41
2023-05-22T07:31:39.230Z,20.38
2023-05-22T07:34:06.470Z,20.42
2023-05-22T07:36:34.916Z,20.49
2023-05-22T07:39:02.343Z,20.41
2023-05-22T07:41:31.199Z,20.40
2023-05-22T07:43:58.321Z,20.47
2023-05-22T07:46:28.871Z,20.52
2023-05-22T07:48:59.979Z,20.59
2023-05-22T07:51:27.391Z,20.81
2023-05-22T07:53:54.696Z,20.97
2023-05-22T07:56:22.521Z,21.05
2023-05-22T07:58:50.119Z,21.16
2023-05-22T08:01:19.230Z,21.31
2023-05-22T08:03:46.454Z,21.42
2023-05-22T08:06:16.072Z,21.45
2023-05-22T08:08:43.276Z,21.46
2023-05-22T08:11:10.517Z,21.42
2023-05-22T08:13:38.985Z,21.42
2023-05-22T08:16:06.639Z,21.62
2023-05-22T08:18:34.776Z,21.83
2023-05-22T08:21:02.188Z,22.02
2023-05-22T08:23:30.123Z,22.17
2023-05-22T08:25:58.260Z,22.31
2023-05-22T08:28:25.429Z,22.40
2023-05-22T08:30:52.495Z,22.41
2023-05-22T08:33:19.923Z,22.39
2023-05-22T08:35:46.973Z,22.42
2023-05-22T08:38:15.199Z,22.47
2023-05-22T08:40:45.261Z,22.44
2023-05-22T08:43:13.326Z,22.32
2023-05-22T08:45:42.647Z,22.08
2023-05-22T08:48:12.751Z,21.86
2023-05-22T08:50:42.517Z,21.73
2023-05-22T08:53:12.753Z,21.78
2023-05-22T08:55:40.098Z,21.85
2023-05-22T08:58:07.172Z,21.78
2023-05-22T09:00:34.212Z,21.62
2023-05-22T09:03:01.406Z,21.55
2023-05-22T09:05:28.619Z,21.63
2023-05-22T09:08:00.397Z,21.69
2023-05-22T09:10:30.302Z,21.71
2023-05-22T09:13:09.650Z,21.65
2023-05-22T09:15:36.972Z,21.61
2023-05-22T09:18:07.081Z,21.67
2023-05-22T09:20:43.585Z,21.70
2023-05-22T09:23:22.208Z,21.76
2023-05-22T09:25:49.493Z,21.86
2023-05-22T09:28:16.642Z,22.01
2023-05-22T09:30:43.758Z,22.15
2023-05-22T09:33:12.817Z,22.31
2023-05-22T09:35:40.052Z,22.49
2023-05-22T09:38:07.152Z,22.63
2023-05-22T09:40:35.319Z,22.86
2023-05-22T09:43:04.437Z,23.10
2023-05-22T09:45:31.449Z,23.23
2023-05-22T09:47:58.547Z,23.30
2023-05-22T09:50:25.709Z,23.43
2023-05-22T09:52:52.934Z,23.47
2023-05-22T09:55:21.746Z,23.39
2023-05-22T09:57:50.336Z,23.37
2023-05-22T10:00:18.669Z,23.30
2023-05-22T10:02:51.119Z,23.22
2023-05-22T10:05:24.289Z,23.20
2023-05-22T10:07:54.799Z,23.27
2023-05-22T10:10:23.152Z,23.18
2023-05-22T10:13:06.466Z,23.07
2023-05-22T10:15:34.089Z,22.99
2023-05-22T10:18:01.718Z,22.90
2023-05-22T10:20:29.607Z,22.77
2023-05-22T10:22:57.509Z,22.75
2023-05-22T10:25:26.064Z,22.81
2023-05-22T10:27:53.968Z,22.94
2023-05-22T10:30:28.188Z,22.98
2023-05-22T10:33:34.269Z,22.99
2023-05-22T10:36:07.044Z,23.02
2023-05-22T10:38:52.340Z,22.94
2023-05-22T10:41:19.633Z,22.86
2023-05-22T10:43:49.092Z,22.77
2023-05-22T10:46:16.348Z,22.70
2023-05-22T10:48:47.250Z,22.67
2023-05-22T10:51:21.827Z,22.68
2023-05-22T10:53:59.176Z,22.63
2023-05-22T10:56:26.724Z,22.50
2023-05-22T10:58:58.504Z,22.40
2023-05-22T11:01:26.097Z,22.32
2023-05-22T11:04:09.300Z,22.27
2023-05-22T11:07:15.474Z,22.29
2023-05-22T11:09:43.512Z,22.44
2023-05-22T11:12:13.281Z,22.60
2023-05-22T11:14:40.509Z,22.76
2023-05-22T11:17:07.621Z,22.79
2023-05-22T11:19:34.823Z,22.85
2023-05-22T11:22:04.758Z,22.84
2023-05-22T11:24:35.121Z,22.85
2023-05-22T11:27:06.132Z,22.81
2023-05-22T11:29:33.511Z,22.83
2023-05-22T11:32:00.857Z,22.94
2023-05-22T11:34:28.140Z,23.04
2023-05-22T11:36:59.917Z,22.98
2023-05-22T11:39:27.512Z,22.87
2023-05-22T11:41:55.134Z,22.85
2023-05-22T11:44:22.189Z,22.98
2023-05-22T11:46:49.338Z,23.13
2023-05-22T11:49:17.451Z,23.22
2023-05-22T11:51:44.705Z,23.29
2023-05-22T11:54:12.079Z,23.32
2023-05-22T11:56:39.147Z,23.29
2023-05-22T11:59:06.237Z,23.37
2023-05-22T12:01:33.811Z,23.40
2023-05-22T12:04:01.798Z,23.29
2023-05-22T12:06:33.425Z,23.29
2023-05-22T12:09:01.446Z,23.32
2023-05-22T12:11:29.189Z,23.40
2023-05-22T12:14:06.317Z,23.55
2023-05-22T12:16:37.179Z,23.62
2023-05-22T12:19:08.314Z,23.65
2023-05-22T12:21:36.823Z,23.77
2023-05-22T12:24:05.176Z,23.82
2023-05-22T12:26:33.078Z,23.96
2023-05-22T12:29:00.929Z,24.04
2023-05-22T12:31:28.573Z,23.93
2023-05-22T12:33:56.713Z,23.73
2023-05-22T12:36:35.180Z,23.48
2023-05-22T12:39:02.834Z,23.29
2023-05-22T12:41:30.414Z,23.08
2023-05-22T12:43:57.931Z,22.88
2023-05-22T12:46:25.868Z,22.77
2023-05-22T12:48:54.178Z,22.79
2023-05-22T12:51:21.806Z,22.92
2023-05-22T12:53:49.542Z,22.97
2023-05-22T12:56:17.154Z,22.93
2023-05-22T12:58:44.775Z,22.80
2023-05-22T13:01:12.483Z,22.63
2023-05-22T13:03:40.286Z,22.59
2023-05-22T13:06:08.255Z,22.62
2023-05-22T13:08:35.936Z,22.63
2023-05-22T13:11:03.551Z,22.61
2023-05-22T13:13:31.351Z,22.48
2023-05-22T13:15:59.189Z,22.25
2023-05-22T13:18:26.719Z,22.09
2023-05-22T13:20:56.478Z,21.99
2023-05-22T13:23:24.201Z,21.99
2023-05-22T13:25:51.775Z,21.97
2023-05-22T13:28:19.494Z,21.92
2023-05-22T13:30:47.075Z,21.82
2023-05-22T13:33:14.637Z,21.72
2023-05-22T13:35:45.059Z,21.63
2023-05-22T13:38:12.910Z,21.54
2023-05-22T13:40:40.628Z,21.50
2023-05-22T13:43:10.113Z,21.49
2023-05-22T13:45:37.942Z,21.54
2023-05-22T13:48:06.047Z,21.59
2023-05-22T13:50:33.761Z,21.58
2023-05-22T13:53:01.981Z,21.52
2023-05-22T13:55:30.092Z,21.43
2023-05-22T13:58:00.173Z,21.34
2023-05-22T14:00:29.003Z,21.26
2023-05-22T14:02:57.957Z,21.18
2023-05-22T14:05:26.045Z,21.09
2023-05-22T14:07:56.097Z,21.04
2023-05-22T14:10:24.166Z,20.97
2023-05-22T14:12:51.806Z,20.90
2023-05-22T14:15:19.440Z,20.88
2023-05-22T14:17:47.116Z,20.89
2023-05-22T14:20:15.323Z,20.93
2023-05-22T14:22:56.524Z,20.94
2023-05-22T14:25:26.382Z,21.03
2023-05-22T14:27:54.000Z,21.10
2023-05-22T14:30:21.765Z,21.16
2023-05-22T14:32:49.452Z,21.20
2023-05-22T14:35:17.201Z,21.22
2023-05-22T14:37:44.885Z,21.29
2023-05-22T14:40:12.603Z,21.38
2023-05-22T14:42:40.428Z,21.45
2023-05-22T14:45:08.773Z,21.52
2023-05-22T14:47:36.841Z,21.57
2023-05-22T14:50:18.197Z,21.64
2023-05-22T14:52:47.678Z,21.76
2023-05-22T14:55:16.175Z,21.85
2023-05-22T14:57:43.915Z,21.92
2023-05-22T15:00:12.678Z,21.92
2023-05-22T15:02:40.988Z,21.88
2023-05-22T15:05:09.844Z,21.90
2023-05-22T15:10:09.868Z,21.86
2023-05-22T15:12:37.655Z,21.73
2023-05-22T15:15:05.837Z,21.54
2023-05-22T15:17:33.604Z,21.31
2023-05-22T15:20:01.507Z,21.10
2023-05-22T15:22:29.030Z,20.91
2023-05-22T15:25:09.843Z,20.74
2023-05-22T15:27:38.489Z,20.61
2023-05-22T15:30:06.969Z,20.54
2023-05-22T15:32:34.688Z,20.45
2023-05-22T15:35:02.329Z,20.36
2023-05-22T15:37:32.426Z,20.27
2023-05-22T15:40:01.680Z,20.21
2023-05-22T15:42:30.079Z,20.15
2023-05-22T15:45:00.722Z,20.09
2023-05-22T15:47:29.081Z,20.05
2023-05-22T15:49:56.755Z,19.99
2023-05-22T15:52:24.907Z,19.95
2023-05-22T15:54:53.199Z,19.93
2023-05-22T15:57:21.584Z,19.91
2023-05-22T15:59:51.080Z,19.88
2023-05-22T16:02:19.727Z,19.86
2023-05-22T16:04:49.042Z,19.84
2023-05-22T16:07:19.027Z,19.82
2023-05-22T16:09:46.731Z,19.79
2023-05-22T16:12:14.509Z,19.77
2023-05-22T16:14:42.647Z,19.75
2023-05-22T16:17:10.367Z,19.75
2023-05-22T16:19:38.664Z,19.74
2023-05-22T16:22:06.589Z,19.74
2023-05-22T16:24:36.460Z,19.73
2023-05-22T16:27:04.619Z,19.70
2023-05-22T16:29:32.798Z,19.70
2023-05-22T16:32:00.592Z,19.69
2023-05-22T16:34:29.969Z,19.69
2023-05-22T16:36:58.170Z,19.69
2023-05-22T16:39:26.883Z,19.69
2023-05-22T16:41:54.529Z,19.68
2023-05-22T16:44:22.124Z,19.67
2023-05-22T16:46:50.081Z,19.67
2023-05-22T16:49:17.766Z,19.66
2023-05-22T16:51:45.665Z,19.63
2023-05-22T16:54:13.437Z,19.61
2023-05-22T16:56:41.299Z,19.59
2023-05-22T16:59:09.235Z,19.56
2023-05-22T17:01:37.663Z,19.54
2023-05-22T17:04:05.478Z,19.50
2023-05-22T17:06:33.237Z,19.47
2023-05-22T17:09:00.859Z,19.44
2023-05-22T17:11:28.646Z,19.40
2023-05-22T17:13:56.328Z,19.36
2023-05-22T17:16:24.181Z,19.30
2023-05-22T17:18:54.143Z,19.26
2023-05-22T17:21:22.950Z,19.21
2023-05-22T17:23:50.839Z,19.17
2023-05-22T17:26:18.915Z,19.14
2023-05-22T17:28:46.850Z,19.11
2023-05-22T17:31:14.990Z,19.08
2023-05-22T17:33:43.755Z,19.05
2023-05-22T17:36:11.440Z,19.01
2023-05-22T17:38:39.139Z,18.98
2023-05-22T17:41:07.179Z,18.96
2023-05-22T17:43:38.391Z,18.93
2023-05-22T17:46:06.751Z,18.92
2023-05-22T17:48:35.189Z,18.88
2023-05-22T17:51:03.872Z,18.83
2023-05-22T17:53:51.685Z,18.80
2023-05-22T17:56:20.183Z,18.77
2023-05-22T17:58:48.533Z,18.75
2023-05-22T18:01:18.251Z,18.76
2023-05-22T18:03:46.192Z,18.75
2023-05-22T18:06:14.148Z,18.74
2023-05-22T18:08:41.928Z,18.73
2023-05-22T18:11:09.535Z,18.73
2023-05-22T18:13:37.117Z,18.73
2023-05-22T18:16:05.155Z,18.74
2023-05-22T18:18:32.953Z,18.75
2023-05-22T18:21:00.750Z,18.73
2023-05-22T18:23:28.823Z,18.71
2023-05-22T18:25:57.503Z,18.69
2023-05-22T18:28:28.227Z,18.67
2023-05-22T18:30:58.264Z,18.66
2023-05-22T18:33:26.126Z,18.64
2023-05-22T18:35:54.739Z,18.63
2023-05-22T18:38:22.510Z,18.62
2023-05-22T18:40:50.139Z,18.62
2023-05-22T18:43:18.062Z,18.61
2023-05-22T18:45:46.045Z,18.60
2023-05-22T18:48:13.822Z,18.59
2023-05-22T18:50:41.933Z,18.58
2023-05-22T18:53:10.285Z,18.59
2023-05-22T18:55:38.073Z,18.59
2023-05-22T18:58:05.828Z,18.58
2023-05-22T19:00:33.654Z,18.58
2023-05-22T19:03:03.825Z,18.57
2023-05-22T19:05:35.195Z,18.55
2023-05-22T19:08:03.232Z,18.54
2023-05-22T19:10:31.126Z,18.53
2023-05-22T19:13:00.594Z,18.53
2023-05-22T19:15:28.401Z,18.52
2023-05-22T19:17:56.055Z,18.51
2023-05-22T19:20:23.976Z,18.49
2023-05-22T19:22:51.804Z,18.49
2023-05-22T19:25:19.971Z,18.48
2023-05-22T19:27:48.246Z,18.48
2023-05-22T19:30:16.690Z,18.47
2023-05-22T19:32:46.281Z,18.46
2023-05-22T19:35:14.559Z,18.46
2023-05-22T19:37:42.410Z,18.45
2023-05-22T19:40:11.403Z,18.45
2023-05-22T19:42:40.241Z,18.44
2023-05-22T19:45:08.844Z,18.44
2023-05-22T19:47:36.786Z,18.44
2023-05-22T19:50:05.021Z,18.43
2023-05-22T19:52:32.680Z,18.43
2023-05-22T19:55:00.700Z,18.43
2023-05-22T19:57:29.487Z,18.44
2023-05-22T19:59:57.366Z,18.43
2023-05-22T20:02:25.025Z,18.43
2023-05-22T20:04:54.927Z,18.40
2023-05-22T20:07:22.750Z,18.37
2023-05-22T20:09:50.539Z,18.36
2023-05-22T20:12:18.345Z,18.36
2023-05-22T20:14:46.521Z,18.36
2023-05-22T20:17:14.336Z,18.36
2023-05-22T20:19:45.127Z,18.36
2023-05-22T20:22:12.661Z,18.35
2023-05-22T20:24:40.625Z,18.31
2023-05-22T20:27:08.356Z,18.25
2023-05-22T20:29:37.123Z,18.18
2023-05-22T20:32:05.036Z,18.09
2023-05-22T20:34:32.693Z,18.01
2023-05-22T20:37:00.639Z,17.95
2023-05-22T20:39:28.401Z,17.91
2023-05-22T20:41:55.956Z,17.87
2023-05-22T20:44:25.067Z,17.85
2023-05-22T20:46:53.580Z,17.83
2023-05-22T20:49:21.604Z,17.79
2023-05-22T20:51:50.301Z,17.74
2023-05-22T20:54:18.116Z,17.75
2023-05-22T20:56:45.986Z,17.74
2023-05-22T20:59:13.673Z,17.75
2023-05-22T21:01:41.211Z,17.75
2023-05-22T21:04:08.876Z,17.74
2023-05-22T21:06:36.903Z,17.73
2023-05-22T21:09:04.689Z,17.74
2023-05-22T21:11:32.348Z,17.74
2023-05-22T21:13:59.984Z,17.74
2023-05-22T21:16:28.588Z,17.72
2023-05-22T21:18:56.247Z,17.73
2023-05-22T21:21:24.079Z,17.72
2023-05-22T21:23:52.736Z,17.72
2023-05-22T21:26:22.641Z,17.72
2023-05-22T21:28:50.351Z,17.72
2023-05-22T21:31:17.983Z,17.70
2023-05-22T21:33:45.593Z,17.72
2023-05-22T21:36:13.188Z,17.72
2023-05-22T21:38:40.806Z,17.72
2023-05-22T21:41:08.496Z,17.71
2023-05-22T21:43:36.059Z,17.69
2023-05-22T21:46:03.763Z,17.66
2023-05-22T21:48:31.587Z,17.63
2023-05-22T21:50:59.204Z,17.60
2023-05-22T21:53:26.890Z,17.57
2023-05-22T21:55:54.570Z,17.55
2023-05-22T21:58:22.290Z,17.53
2023-05-22T22:00:49.886Z,17.49
2023-05-22T22:03:17.691Z,17.46
2023-05-22T22:05:45.309Z,17.44
2023-05-22T22:08:12.859Z,17.44
2023-05-22T22:10:40.695Z,17.45
2023-05-22T22:13:08.600Z,17.47
2023-05-22T22:15:36.858Z,17.48
2023-05-22T22:18:05.310Z,17.47
2023-05-22T22:20:43.433Z,17.43
2023-05-22T22:23:12.986Z,17.38
2023-05-22T22:25:40.705Z,17.33
2023-05-22T22:28:08.346Z,17.27
2023-05-22T22:30:35.877Z,17.22
2023-05-22T22:33:03.468Z,17.18
2023-05-22T22:35:31.121Z,17.15
2023-05-22T22:37:59.090Z,17.13
2023-05-22T22:40:27.062Z,17.12
2023-05-22T22:42:54.706Z,17.12
2023-05-22T22:45:22.703Z,17.12
2023-05-22T22:47:50.385Z,17.11
2023-05-22T22:50:18.100Z,17.10
2023-05-22T22:52:45.751Z,17.08
2023-05-22T22:55:13.727Z,17.08
2023-05-22T22:57:47.112Z,17.09
2023-05-22T23:00:16.355Z,17.11
2023-05-22T23:02:44.255Z,17.12
2023-05-22T23:05:12.357Z,17.13
2023-05-22T23:07:40.187Z,17.15
2023-05-22T23:10:08.512Z,17.16
2023-05-22T23:12:36.443Z,17.16
2023-05-22T23:15:05.478Z,17.16
2023-05-22T23:17:33.509Z,17.16
2023-05-22T23:20:01.268Z,17.16
2023-05-22T23:22:28.870Z,17.15
2023-05-22T23:24:56.617Z,17.14
2023-05-22T23:27:24.315Z,17.13
2023-05-22T23:29:52.308Z,17.13
2023-05-22T23:32:20.018Z,17.14
2023-05-22T23:34:47.644Z,17.14
2023-05-22T23:37:15.409Z,17.14
2023-05-22T23:39:43.107Z,17.15
2023-05-22T23:42:11.152Z,17.16
2023-05-22T23:44:38.768Z,17.15
2023-05-22T23:47:06.893Z,17.12
2023-05-22T23:49:34.907Z,17.08
2023-05-22T23:52:02.474Z,17.04
2023-05-22T23:54:30.086Z,16.99
2023-05-22T23:56:57.632Z,16.96
2023-05-22T23:59:25.206Z,16.91
